sensor_id;sensor_type;location;lat;lon;timestamp;P1;durP1;ratioP1;P2;durP2;ratioP2
49320;SDS011;35817;44.498;0.166;2022-12-24T00:02:20;4.85;;;1.98;;
49320;SDS011;35817;44.498;0.166;2022-12-24T00:04:46;5.05;;;1.60;;
49320;SDS011;35817;44.498;0.166;2022-12-24T00:07:11;9.93;;;2.53;;
49320;SDS011;35817;44.498;0.166;2022-12-24T00:09:37;5.47;;;1.27;;
49320;SDS011;35817;44.498;0.166;2022-12-24T00:12:03;7.68;;;1.58;;
49320;SDS011;35817;44.498;0.166;2022-12-24T00:14:29;6.43;;;1.40;;
49320;SDS011;35817;44.498;0.166;2022-12-24T00:16:55;7.57;;;2.08;;
49320;SDS011;35817;44.498;0.166;2022-12-24T00:19:20;9.30;;;1.98;;
49320;SDS011;35817;44.498;0.166;2022-12-24T00:21:46;7.03;;;1.80;;
49320;SDS011;35817;44.498;0.166;2022-12-24T00:24:12;10.07;;;3.05;;
49320;SDS011;35817;44.498;0.166;2022-12-24T00:26:37;6.03;;;2.40;;
49320;SDS011;35817;44.498;0.166;2022-12-24T00:29:03;10.35;;;3.83;;
49320;SDS011;35817;44.498;0.166;2022-12-24T00:31:29;12.45;;;6.70;;
49320;SDS011;35817;44.498;0.166;2022-12-24T00:33:55;10.80;;;7.07;;
49320;SDS011;35817;44.498;0.166;2022-12-24T00:36:20;15.40;;;7.20;;
49320;SDS011;35817;44.498;0.166;2022-12-24T00:38:46;10.70;;;5.68;;
49320;SDS011;35817;44.498;0.166;2022-12-24T00:41:12;11.57;;;6.57;;
49320;SDS011;35817;44.498;0.166;2022-12-24T00:46:28;7.32;;;5.10;;
49320;SDS011;35817;44.498;0.166;2022-12-24T00:48:55;9.90;;;6.78;;
49320;SDS011;35817;44.498;0.166;2022-12-24T00:51:21;15.00;;;6.35;;
49320;SDS011;35817;44.498;0.166;2022-12-24T00:53:47;9.05;;;5.50;;
49320;SDS011;35817;44.498;0.166;2022-12-24T00:56:14;10.18;;;6.35;;
49320;SDS011;35817;44.498;0.166;2022-12-24T00:58:40;12.02;;;5.70;;
49320;SDS011;35817;44.498;0.166;2022-12-24T01:01:05;17.27;;;5.57;;
49320;SDS011;35817;44.498;0.166;2022-12-24T01:03:31;7.43;;;4.25;;
49320;SDS011;35817;44.498;0.166;2022-12-24T01:06:02;9.35;;;4.30;;
49320;SDS011;35817;44.498;0.166;2022-12-24T01:08:29;8.05;;;4.30;;
49320;SDS011;35817;44.498;0.166;2022-12-24T01:10:56;8.88;;;5.55;;
49320;SDS011;35817;44.498;0.166;2022-12-24T01:13:22;7.63;;;3.97;;
49320;SDS011;35817;44.498;0.166;2022-12-24T01:15:48;8.50;;;3.47;;
49320;SDS011;35817;44.498;0.166;2022-12-24T01:18:13;10.95;;;3.53;;
49320;SDS011;35817;44.498;0.166;2022-12-24T01:20:39;7.30;;;2.53;;
49320;SDS011;35817;44.498;0.166;2022-12-24T01:23:05;13.38;;;3.00;;
49320;SDS011;35817;44.498;0.166;2022-12-24T01:25:31;4.88;;;2.42;;
49320;SDS011;35817;44.498;0.166;2022-12-24T01:27:56;6.13;;;2.88;;
49320;SDS011;35817;44.498;0.166;2022-12-24T01:30:22;8.27;;;2.38;;
49320;SDS011;35817;44.498;0.166;2022-12-24T01:32:48;8.23;;;3.35;;
49320;SDS011;35817;44.498;0.166;2022-12-24T01:35:14;10.68;;;3.95;;
49320;SDS011;35817;44.498;0.166;2022-12-24T01:37:40;6.53;;;3.38;;
49320;SDS011;35817;44.498;0.166;2022-12-24T01:40:07;6.75;;;3.63;;
49320;SDS011;35817;44.498;0.166;2022-12-24T01:42:56;7.57;;;3.10;;
49320;SDS011;35817;44.498;0.166;2022-12-24T01:48:58;6.00;;;2.92;;
49320;SDS011;35817;44.498;0.166;2022-12-24T01:53:36;7.10;;;3.33;;
49320;SDS011;35817;44.498;0.166;2022-12-24T01:56:03;11.32;;;3.13;;
49320;SDS011;35817;44.498;0.166;2022-12-24T01:58:30;5.95;;;3.30;;
49320;SDS011;35817;44.498;0.166;2022-12-24T02:00:57;4.95;;;2.10;;
49320;SDS011;35817;44.498;0.166;2022-12-24T02:03:23;12.65;;;4.40;;
49320;SDS011;35817;44.498;0.166;2022-12-24T02:05:53;10.35;;;3.83;;
49320;SDS011;35817;44.498;0.166;2022-12-24T02:08:21;9.15;;;3.20;;
49320;SDS011;35817;44.498;0.166;2022-12-24T02:10:47;4.47;;;2.25;;
49320;SDS011;35817;44.498;0.166;2022-12-24T02:13:14;12.57;;;3.88;;
49320;SDS011;35817;44.498;0.166;2022-12-24T02:15:47;4.77;;;2.63;;
49320;SDS011;35817;44.498;0.166;2022-12-24T02:18:46;9.77;;;3.05;;
49320;SDS011;35817;44.498;0.166;2022-12-24T02:21:22;8.88;;;3.17;;
49320;SDS011;35817;44.498;0.166;2022-12-24T02:29:50;6.18;;;2.17;;
49320;SDS011;35817;44.498;0.166;2022-12-24T02:35:11;3.90;;;2.40;;
49320;SDS011;35817;44.498;0.166;2022-12-24T02:38:04;4.97;;;2.40;;
49320;SDS011;35817;44.498;0.166;2022-12-24T02:41:06;6.43;;;2.70;;
49320;SDS011;35817;44.498;0.166;2022-12-24T02:43:43;5.57;;;1.95;;
49320;SDS011;35817;44.498;0.166;2022-12-24T02:46:12;6.57;;;2.60;;
49320;SDS011;35817;44.498;0.166;2022-12-24T02:48:41;7.20;;;2.90;;
49320;SDS011;35817;44.498;0.166;2022-12-24T02:51:10;4.80;;;2.58;;
49320;SDS011;35817;44.498;0.166;2022-12-24T02:53:36;8.32;;;1.90;;
49320;SDS011;35817;44.498;0.166;2022-12-24T02:59:18;7.00;;;2.72;;
49320;SDS011;35817;44.498;0.166;2022-12-24T03:02:08;5.63;;;2.08;;
49320;SDS011;35817;44.498;0.166;2022-12-24T03:10:34;7.15;;;3.38;;
49320;SDS011;35817;44.498;0.166;2022-12-24T03:13:09;8.50;;;4.05;;
49320;SDS011;35817;44.498;0.166;2022-12-24T03:15:41;6.05;;;3.03;;
49320;SDS011;35817;44.498;0.166;2022-12-24T03:18:10;6.30;;;2.75;;
49320;SDS011;35817;44.498;0.166;2022-12-24T03:20:43;6.22;;;3.10;;
49320;SDS011;35817;44.498;0.166;2022-12-24T03:23:12;7.63;;;3.60;;
49320;SDS011;35817;44.498;0.166;2022-12-24T03:25:40;4.38;;;2.42;;
49320;SDS011;35817;44.498;0.166;2022-12-24T03:28:07;8.05;;;3.50;;
49320;SDS011;35817;44.498;0.166;2022-12-24T03:30:38;6.88;;;3.42;;
49320;SDS011;35817;44.498;0.166;2022-12-24T03:33:05;18.30;;;4.00;;
49320;SDS011;35817;44.498;0.166;2022-12-24T03:35:30;7.78;;;4.00;;
49320;SDS011;35817;44.498;0.166;2022-12-24T03:37:56;8.02;;;3.38;;
49320;SDS011;35817;44.498;0.166;2022-12-24T03:40:22;9.82;;;3.72;;
49320;SDS011;35817;44.498;0.166;2022-12-24T03:42:48;8.40;;;3.70;;
49320;SDS011;35817;44.498;0.166;2022-12-24T03:45:13;11.10;;;3.33;;
49320;SDS011;35817;44.498;0.166;2022-12-24T03:47:39;8.80;;;4.18;;
49320;SDS011;35817;44.498;0.166;2022-12-24T03:50:05;8.02;;;4.57;;
49320;SDS011;35817;44.498;0.166;2022-12-24T03:52:31;7.00;;;3.10;;
49320;SDS011;35817;44.498;0.166;2022-12-24T03:54:57;5.00;;;3.35;;
49320;SDS011;35817;44.498;0.166;2022-12-24T03:57:23;6.75;;;2.97;;
49320;SDS011;35817;44.498;0.166;2022-12-24T03:59:49;5.93;;;2.90;;
49320;SDS011;35817;44.498;0.166;2022-12-24T04:02:15;9.23;;;3.90;;
49320;SDS011;35817;44.498;0.166;2022-12-24T04:04:40;8.07;;;3.17;;
49320;SDS011;35817;44.498;0.166;2022-12-24T04:07:06;5.88;;;3.78;;
49320;SDS011;35817;44.498;0.166;2022-12-24T04:09:32;8.98;;;3.40;;
49320;SDS011;35817;44.498;0.166;2022-12-24T04:11:58;12.00;;;5.13;;
49320;SDS011;35817;44.498;0.166;2022-12-24T04:14:24;9.07;;;4.30;;
49320;SDS011;35817;44.498;0.166;2022-12-24T04:16:49;6.90;;;4.15;;
49320;SDS011;35817;44.498;0.166;2022-12-24T04:19:15;8.35;;;4.18;;
49320;SDS011;35817;44.498;0.166;2022-12-24T04:21:41;5.28;;;3.65;;
49320;SDS011;35817;44.498;0.166;2022-12-24T04:24:06;6.97;;;4.63;;
49320;SDS011;35817;44.498;0.166;2022-12-24T04:26:32;11.18;;;3.75;;
49320;SDS011;35817;44.498;0.166;2022-12-24T04:28:58;9.30;;;5.13;;
49320;SDS011;35817;44.498;0.166;2022-12-24T04:31:24;10.18;;;4.90;;
49320;SDS011;35817;44.498;0.166;2022-12-24T04:33:50;12.55;;;4.90;;
49320;SDS011;35817;44.498;0.166;2022-12-24T04:36:17;14.07;;;5.07;;
49320;SDS011;35817;44.498;0.166;2022-12-24T04:38:45;8.15;;;4.03;;
49320;SDS011;35817;44.498;0.166;2022-12-24T04:41:12;10.30;;;4.53;;
49320;SDS011;35817;44.498;0.166;2022-12-24T04:43:40;6.10;;;3.35;;
49320;SDS011;35817;44.498;0.166;2022-12-24T04:46:07;7.18;;;3.58;;
49320;SDS011;35817;44.498;0.166;2022-12-24T04:48:35;5.55;;;2.65;;
49320;SDS011;35817;44.498;0.166;2022-12-24T04:51:03;5.68;;;3.53;;
49320;SDS011;35817;44.498;0.166;2022-12-24T04:53:29;9.93;;;3.25;;
49320;SDS011;35817;44.498;0.166;2022-12-24T04:55:56;9.63;;;2.92;;
49320;SDS011;35817;44.498;0.166;2022-12-24T04:58:23;9.23;;;2.78;;
49320;SDS011;35817;44.498;0.166;2022-12-24T05:00:49;9.10;;;2.67;;
49320;SDS011;35817;44.498;0.166;2022-12-24T05:03:14;13.25;;;2.85;;
49320;SDS011;35817;44.498;0.166;2022-12-24T05:05:40;4.93;;;2.53;;
49320;SDS011;35817;44.498;0.166;2022-12-24T05:08:06;10.75;;;3.03;;
49320;SDS011;35817;44.498;0.166;2022-12-24T05:10:31;8.68;;;2.70;;
49320;SDS011;35817;44.498;0.166;2022-12-24T05:12:57;12.32;;;3.42;;
49320;SDS011;35817;44.498;0.166;2022-12-24T05:15:23;5.78;;;2.83;;
49320;SDS011;35817;44.498;0.166;2022-12-24T05:17:49;4.10;;;2.35;;
49320;SDS011;35817;44.498;0.166;2022-12-24T05:20:15;4.35;;;2.05;;
49320;SDS011;35817;44.498;0.166;2022-12-24T05:22:41;8.82;;;2.97;;
49320;SDS011;35817;44.498;0.166;2022-12-24T05:25:29;8.65;;;3.55;;
49320;SDS011;35817;44.498;0.166;2022-12-24T05:28:17;6.18;;;3.35;;
49320;SDS011;35817;44.498;0.166;2022-12-24T05:30:43;7.85;;;3.47;;
49320;SDS011;35817;44.498;0.166;2022-12-24T05:33:08;3.45;;;2.13;;
49320;SDS011;35817;44.498;0.166;2022-12-24T05:35:34;6.45;;;3.38;;
49320;SDS011;35817;44.498;0.166;2022-12-24T05:38:00;7.53;;;2.33;;
49320;SDS011;35817;44.498;0.166;2022-12-24T05:40:25;5.78;;;2.70;;
49320;SDS011;35817;44.498;0.166;2022-12-24T05:42:51;13.00;;;3.05;;
49320;SDS011;35817;44.498;0.166;2022-12-24T05:45:17;5.50;;;2.88;;
49320;SDS011;35817;44.498;0.166;2022-12-24T05:47:42;5.75;;;3.80;;
49320;SDS011;35817;44.498;0.166;2022-12-24T05:50:08;7.75;;;3.42;;
49320;SDS011;35817;44.498;0.166;2022-12-24T05:52:34;10.38;;;3.35;;
49320;SDS011;35817;44.498;0.166;2022-12-24T05:55:00;5.28;;;2.80;;
49320;SDS011;35817;44.498;0.166;2022-12-24T05:57:26;3.63;;;1.88;;
49320;SDS011;35817;44.498;0.166;2022-12-24T05:59:51;4.10;;;2.70;;
49320;SDS011;35817;44.498;0.166;2022-12-24T06:02:17;5.30;;;3.60;;
49320;SDS011;35817;44.498;0.166;2022-12-24T06:04:43;7.80;;;4.05;;
49320;SDS011;35817;44.498;0.166;2022-12-24T06:07:08;6.28;;;4.18;;
49320;SDS011;35817;44.498;0.166;2022-12-24T06:09:34;8.00;;;3.20;;
49320;SDS011;35817;44.498;0.166;2022-12-24T06:12:00;9.18;;;3.90;;
49320;SDS011;35817;44.498;0.166;2022-12-24T06:14:25;11.93;;;3.40;;
49320;SDS011;35817;44.498;0.166;2022-12-24T06:16:51;10.68;;;3.60;;
49320;SDS011;35817;44.498;0.166;2022-12-24T06:19:17;9.40;;;4.00;;
49320;SDS011;35817;44.498;0.166;2022-12-24T06:21:43;10.38;;;3.08;;
49320;SDS011;35817;44.498;0.166;2022-12-24T06:24:08;10.43;;;3.78;;
49320;SDS011;35817;44.498;0.166;2022-12-24T06:26:34;5.88;;;2.65;;
49320;SDS011;35817;44.498;0.166;2022-12-24T06:29:00;9.05;;;3.88;;
49320;SDS011;35817;44.498;0.166;2022-12-24T06:31:25;15.63;;;4.60;;
49320;SDS011;35817;44.498;0.166;2022-12-24T06:33:51;11.57;;;4.47;;
49320;SDS011;35817;44.498;0.166;2022-12-24T06:36:18;12.77;;;5.68;;
49320;SDS011;35817;44.498;0.166;2022-12-24T06:38:49;10.50;;;5.75;;
49320;SDS011;35817;44.498;0.166;2022-12-24T06:41:17;10.43;;;5.78;;
49320;SDS011;35817;44.498;0.166;2022-12-24T06:43:44;9.43;;;4.10;;
49320;SDS011;35817;44.498;0.166;2022-12-24T06:46:11;11.75;;;5.80;;
49320;SDS011;35817;44.498;0.166;2022-12-24T06:48:37;10.25;;;4.07;;
49320;SDS011;35817;44.498;0.166;2022-12-24T06:51:03;11.43;;;5.00;;
49320;SDS011;35817;44.498;0.166;2022-12-24T06:53:29;6.38;;;4.30;;
49320;SDS011;35817;44.498;0.166;2022-12-24T06:56:02;9.73;;;5.15;;
49320;SDS011;35817;44.498;0.166;2022-12-24T06:58:29;8.70;;;3.90;;
49320;SDS011;35817;44.498;0.166;2022-12-24T07:00:55;6.50;;;5.43;;
49320;SDS011;35817;44.498;0.166;2022-12-24T07:03:21;11.05;;;4.78;;
49320;SDS011;35817;44.498;0.166;2022-12-24T07:05:47;9.15;;;4.32;;
49320;SDS011;35817;44.498;0.166;2022-12-24T07:08:13;6.85;;;4.57;;
49320;SDS011;35817;44.498;0.166;2022-12-24T07:10:39;8.85;;;3.00;;
49320;SDS011;35817;44.498;0.166;2022-12-24T07:13:04;4.53;;;2.78;;
49320;SDS011;35817;44.498;0.166;2022-12-24T07:15:30;4.40;;;2.63;;
49320;SDS011;35817;44.498;0.166;2022-12-24T07:17:56;3.60;;;2.42;;
49320;SDS011;35817;44.498;0.166;2022-12-24T07:20:21;8.50;;;2.53;;
49320;SDS011;35817;44.498;0.166;2022-12-24T07:22:47;5.97;;;2.80;;
49320;SDS011;35817;44.498;0.166;2022-12-24T07:25:13;6.93;;;2.20;;
49320;SDS011;35817;44.498;0.166;2022-12-24T07:27:39;6.78;;;3.10;;
49320;SDS011;35817;44.498;0.166;2022-12-24T07:30:05;4.03;;;1.98;;
49320;SDS011;35817;44.498;0.166;2022-12-24T07:32:32;5.18;;;2.05;;
49320;SDS011;35817;44.498;0.166;2022-12-24T07:34:57;4.40;;;2.38;;
49320;SDS011;35817;44.498;0.166;2022-12-24T07:37:23;23.17;;;2.85;;
49320;SDS011;35817;44.498;0.166;2022-12-24T07:39:49;9.25;;;2.58;;
49320;SDS011;35817;44.498;0.166;2022-12-24T07:42:15;4.65;;;2.22;;
49320;SDS011;35817;44.498;0.166;2022-12-24T07:44:40;8.38;;;1.90;;
49320;SDS011;35817;44.498;0.166;2022-12-24T07:47:06;6.20;;;2.05;;
49320;SDS011;35817;44.498;0.166;2022-12-24T07:49:32;5.47;;;2.17;;
49320;SDS011;35817;44.498;0.166;2022-12-24T07:51:58;4.47;;;1.67;;
49320;SDS011;35817;44.498;0.166;2022-12-24T07:54:24;3.30;;;2.03;;
49320;SDS011;35817;44.498;0.166;2022-12-24T07:56:50;3.80;;;2.63;;
49320;SDS011;35817;44.498;0.166;2022-12-24T07:59:15;4.60;;;2.50;;
49320;SDS011;35817;44.498;0.166;2022-12-24T08:01:42;5.18;;;2.63;;
49320;SDS011;35817;44.498;0.166;2022-12-24T08:04:09;4.72;;;2.50;;
49320;SDS011;35817;44.498;0.166;2022-12-24T08:06:35;6.60;;;4.07;;
49320;SDS011;35817;44.498;0.166;2022-12-24T08:09:01;6.38;;;3.40;;
49320;SDS011;35817;44.498;0.166;2022-12-24T08:11:27;9.68;;;3.33;;
49320;SDS011;35817;44.498;0.166;2022-12-24T08:13:53;7.20;;;4.28;;
49320;SDS011;35817;44.498;0.166;2022-12-24T08:16:19;7.70;;;3.20;;
49320;SDS011;35817;44.498;0.166;2022-12-24T08:18:44;8.65;;;2.80;;
49320;SDS011;35817;44.498;0.166;2022-12-24T08:21:10;6.85;;;2.90;;
49320;SDS011;35817;44.498;0.166;2022-12-24T08:23:36;8.30;;;2.63;;
49320;SDS011;35817;44.498;0.166;2022-12-24T08:26:02;5.40;;;3.28;;
49320;SDS011;35817;44.498;0.166;2022-12-24T08:28:32;4.10;;;2.45;;
49320;SDS011;35817;44.498;0.166;2022-12-24T08:30:58;7.68;;;3.17;;
49320;SDS011;35817;44.498;0.166;2022-12-24T08:33:24;6.43;;;3.08;;
49320;SDS011;35817;44.498;0.166;2022-12-24T08:35:50;6.60;;;3.50;;
49320;SDS011;35817;44.498;0.166;2022-12-24T08:38:20;13.60;;;3.70;;
49320;SDS011;35817;44.498;0.166;2022-12-24T08:40:47;4.55;;;2.88;;
49320;SDS011;35817;44.498;0.166;2022-12-24T08:43:14;6.65;;;2.70;;
49320;SDS011;35817;44.498;0.166;2022-12-24T08:45:41;26.38;;;5.72;;
49320;SDS011;35817;44.498;0.166;2022-12-24T08:48:07;5.93;;;3.15;;
49320;SDS011;35817;44.498;0.166;2022-12-24T08:50:34;7.07;;;4.05;;
49320;SDS011;35817;44.498;0.166;2022-12-24T08:53:02;7.93;;;3.92;;
49320;SDS011;35817;44.498;0.166;2022-12-24T08:55:28;7.07;;;4.88;;
49320;SDS011;35817;44.498;0.166;2022-12-24T08:57:53;5.35;;;3.10;;
49320;SDS011;35817;44.498;0.166;2022-12-24T09:00:19;6.50;;;3.35;;
49320;SDS011;35817;44.498;0.166;2022-12-24T09:02:45;6.85;;;4.15;;
49320;SDS011;35817;44.498;0.166;2022-12-24T09:05:10;7.22;;;4.18;;
49320;SDS011;35817;44.498;0.166;2022-12-24T09:07:36;7.03;;;4.03;;
49320;SDS011;35817;44.498;0.166;2022-12-24T09:10:02;9.05;;;4.53;;
49320;SDS011;35817;44.498;0.166;2022-12-24T09:12:28;9.07;;;4.28;;
49320;SDS011;35817;44.498;0.166;2022-12-24T09:14:54;5.30;;;3.83;;
49320;SDS011;35817;44.498;0.166;2022-12-24T09:17:20;6.47;;;3.83;;
49320;SDS011;35817;44.498;0.166;2022-12-24T09:19:46;5.82;;;3.83;;
49320;SDS011;35817;44.498;0.166;2022-12-24T09:22:12;7.10;;;4.60;;
49320;SDS011;35817;44.498;0.166;2022-12-24T09:24:38;9.13;;;4.78;;
49320;SDS011;35817;44.498;0.166;2022-12-24T09:27:04;5.90;;;3.92;;
49320;SDS011;35817;44.498;0.166;2022-12-24T09:29:30;20.42;;;6.30;;
49320;SDS011;35817;44.498;0.166;2022-12-24T09:31:56;6.25;;;4.65;;
49320;SDS011;35817;44.498;0.166;2022-12-24T09:34:22;6.60;;;4.28;;
49320;SDS011;35817;44.498;0.166;2022-12-24T09:36:48;8.27;;;4.60;;
49320;SDS011;35817;44.498;0.166;2022-12-24T09:39:15;14.52;;;5.28;;
49320;SDS011;35817;44.498;0.166;2022-12-24T09:47:20;13.35;;;4.72;;
49320;SDS011;35817;44.498;0.166;2022-12-24T09:53:03;8.05;;;4.40;;
49320;SDS011;35817;44.498;0.166;2022-12-24T09:55:39;7.70;;;4.93;;
49320;SDS011;35817;44.498;0.166;2022-12-24T09:58:16;6.60;;;5.00;;
49320;SDS011;35817;44.498;0.166;2022-12-24T10:00:47;10.52;;;5.03;;
49320;SDS011;35817;44.498;0.166;2022-12-24T10:03:15;8.90;;;4.45;;
49320;SDS011;35817;44.498;0.166;2022-12-24T10:20:24;5.60;;;3.00;;
49320;SDS011;35817;44.498;0.166;2022-12-24T10:28:02;9.88;;;4.40;;
49320;SDS011;35817;44.498;0.166;2022-12-24T10:30:38;8.52;;;3.95;;
49320;SDS011;35817;44.498;0.166;2022-12-24T10:33:08;6.20;;;4.25;;
49320;SDS011;35817;44.498;0.166;2022-12-24T10:35:52;10.82;;;5.28;;
49320;SDS011;35817;44.498;0.166;2022-12-24T10:38:19;9.95;;;7.80;;
49320;SDS011;35817;44.498;0.166;2022-12-24T10:40:46;14.88;;;6.32;;
49320;SDS011;35817;44.498;0.166;2022-12-24T10:43:20;11.63;;;7.13;;
49320;SDS011;35817;44.498;0.166;2022-12-24T10:45:54;17.23;;;7.82;;
49320;SDS011;35817;44.498;0.166;2022-12-24T10:48:31;14.13;;;8.95;;
49320;SDS011;35817;44.498;0.166;2022-12-24T10:53:48;8.57;;;6.57;;
49320;SDS011;35817;44.498;0.166;2022-12-24T10:56:21;12.15;;;6.28;;
49320;SDS011;35817;44.498;0.166;2022-12-24T10:58:53;10.30;;;6.13;;
49320;SDS011;35817;44.498;0.166;2022-12-24T11:01:41;11.18;;;6.90;;
49320;SDS011;35817;44.498;0.166;2022-12-24T11:04:19;11.00;;;8.38;;
49320;SDS011;35817;44.498;0.166;2022-12-24T11:06:57;10.20;;;8.30;;
49320;SDS011;35817;44.498;0.166;2022-12-24T11:09:24;8.60;;;7.70;;
49320;SDS011;35817;44.498;0.166;2022-12-24T11:16:52;9.18;;;4.45;;
49320;SDS011;35817;44.498;0.166;2022-12-24T11:19:22;8.18;;;4.03;;
49320;SDS011;35817;44.498;0.166;2022-12-24T12:04:49;5.72;;;2.00;;
49320;SDS011;35817;44.498;0.166;2022-12-24T12:07:20;6.05;;;2.05;;
49320;SDS011;35817;44.498;0.166;2022-12-24T12:09:58;4.70;;;2.22;;
49320;SDS011;35817;44.498;0.166;2022-12-24T12:12:46;6.88;;;2.72;;
49320;SDS011;35817;44.498;0.166;2022-12-24T12:15:19;4.07;;;2.30;;
49320;SDS011;35817;44.498;0.166;2022-12-24T12:18:01;4.40;;;2.75;;
49320;SDS011;35817;44.498;0.166;2022-12-24T12:20:32;5.00;;;2.47;;
49320;SDS011;35817;44.498;0.166;2022-12-24T12:23:01;4.80;;;2.40;;
49320;SDS011;35817;44.498;0.166;2022-12-24T12:25:41;5.35;;;2.72;;
49320;SDS011;35817;44.498;0.166;2022-12-24T12:28:21;6.97;;;3.17;;
49320;SDS011;35817;44.498;0.166;2022-12-24T12:33:35;6.28;;;2.53;;
49320;SDS011;35817;44.498;0.166;2022-12-24T12:36:11;4.50;;;1.98;;
49320;SDS011;35817;44.498;0.166;2022-12-24T12:38:41;4.63;;;2.10;;
49320;SDS011;35817;44.498;0.166;2022-12-24T12:46:20;8.40;;;3.42;;
49320;SDS011;35817;44.498;0.166;2022-12-24T13:40:55;4.45;;;2.55;;
49320;SDS011;35817;44.498;0.166;2022-12-24T13:49:41;3.60;;;2.60;;
49320;SDS011;35817;44.498;0.166;2022-12-24T13:52:20;5.00;;;2.85;;
49320;SDS011;35817;44.498;0.166;2022-12-24T13:54:59;5.10;;;2.25;;
49320;SDS011;35817;44.498;0.166;2022-12-24T13:57:38;4.25;;;2.35;;
49320;SDS011;35817;44.498;0.166;2022-12-24T14:03:14;4.40;;;2.58;;
49320;SDS011;35817;44.498;0.166;2022-12-24T14:08:12;4.50;;;2.33;;
49320;SDS011;35817;44.498;0.166;2022-12-24T14:18:59;3.00;;;1.95;;
49320;SDS011;35817;44.498;0.166;2022-12-24T14:21:31;4.93;;;1.60;;
49320;SDS011;35817;44.498;0.166;2022-12-24T14:24:02;7.30;;;2.08;;
49320;SDS011;35817;44.498;0.166;2022-12-24T14:26:46;5.65;;;2.25;;
49320;SDS011;35817;44.498;0.166;2022-12-24T14:31:57;4.70;;;2.17;;
49320;SDS011;35817;44.498;0.166;2022-12-24T14:34:28;5.10;;;2.15;;
49320;SDS011;35817;44.498;0.166;2022-12-24T14:36:55;4.50;;;2.55;;
49320;SDS011;35817;44.498;0.166;2022-12-24T14:42:03;4.60;;;1.90;;
49320;SDS011;35817;44.498;0.166;2022-12-24T14:44:55;5.03;;;2.13;;
49320;SDS011;35817;44.498;0.166;2022-12-24T14:56:17;6.40;;;2.42;;
49320;SDS011;35817;44.498;0.166;2022-12-24T14:58:44;4.75;;;1.70;;
49320;SDS011;35817;44.498;0.166;2022-12-24T15:03:42;4.35;;;1.85;;
49320;SDS011;35817;44.498;0.166;2022-12-24T15:06:08;5.25;;;1.90;;
49320;SDS011;35817;44.498;0.166;2022-12-24T15:08:46;4.15;;;2.40;;
49320;SDS011;35817;44.498;0.166;2022-12-24T15:11:15;5.32;;;1.85;;
49320;SDS011;35817;44.498;0.166;2022-12-24T15:13:44;6.93;;;2.00;;
49320;SDS011;35817;44.498;0.166;2022-12-24T15:16:17;4.57;;;2.92;;
49320;SDS011;35817;44.498;0.166;2022-12-24T15:18:48;4.28;;;2.25;;
49320;SDS011;35817;44.498;0.166;2022-12-24T15:21:27;6.82;;;2.70;;
49320;SDS011;35817;44.498;0.166;2022-12-24T15:23:55;5.10;;;2.75;;
49320;SDS011;35817;44.498;0.166;2022-12-24T15:26:26;5.28;;;2.85;;
49320;SDS011;35817;44.498;0.166;2022-12-24T15:28:54;5.45;;;2.30;;
49320;SDS011;35817;44.498;0.166;2022-12-24T15:31:22;6.88;;;2.67;;
49320;SDS011;35817;44.498;0.166;2022-12-24T15:33:50;4.68;;;2.75;;
49320;SDS011;35817;44.498;0.166;2022-12-24T15:36:33;4.95;;;2.63;;
49320;SDS011;35817;44.498;0.166;2022-12-24T15:39:02;11.57;;;2.92;;
49320;SDS011;35817;44.498;0.166;2022-12-24T15:41:36;6.70;;;2.67;;
49320;SDS011;35817;44.498;0.166;2022-12-24T15:44:25;3.78;;;2.13;;
49320;SDS011;35817;44.498;0.166;2022-12-24T15:46:58;3.63;;;2.03;;
49320;SDS011;35817;44.498;0.166;2022-12-24T15:49:26;5.15;;;2.30;;
49320;SDS011;35817;44.498;0.166;2022-12-24T15:51:53;3.65;;;2.47;;
49320;SDS011;35817;44.498;0.166;2022-12-24T15:54:42;5.07;;;2.60;;
49320;SDS011;35817;44.498;0.166;2022-12-24T15:59:54;3.70;;;2.28;;
49320;SDS011;35817;44.498;0.166;2022-12-24T16:08:02;6.10;;;2.25;;
49320;SDS011;35817;44.498;0.166;2022-12-24T16:10:31;3.30;;;1.67;;
49320;SDS011;35817;44.498;0.166;2022-12-24T16:13:08;4.15;;;2.17;;
49320;SDS011;35817;44.498;0.166;2022-12-24T16:15:42;6.40;;;1.92;;
49320;SDS011;35817;44.498;0.166;2022-12-24T16:18:15;4.82;;;2.28;;
49320;SDS011;35817;44.498;0.166;2022-12-24T16:20:47;5.28;;;1.98;;
49320;SDS011;35817;44.498;0.166;2022-12-24T16:23:15;4.90;;;2.22;;
49320;SDS011;35817;44.498;0.166;2022-12-24T16:25:46;4.80;;;2.05;;
49320;SDS011;35817;44.498;0.166;2022-12-24T16:28:12;12.00;;;2.78;;
49320;SDS011;35817;44.498;0.166;2022-12-24T16:30:38;5.40;;;3.13;;
49320;SDS011;35817;44.498;0.166;2022-12-24T16:33:04;4.28;;;2.67;;
49320;SDS011;35817;44.498;0.166;2022-12-24T16:35:36;4.43;;;2.72;;
49320;SDS011;35817;44.498;0.166;2022-12-24T16:38:02;5.10;;;2.85;;
49320;SDS011;35817;44.498;0.166;2022-12-24T16:40:28;6.50;;;2.58;;
49320;SDS011;35817;44.498;0.166;2022-12-24T16:42:55;5.00;;;2.28;;
49320;SDS011;35817;44.498;0.166;2022-12-24T16:45:39;3.75;;;2.28;;
49320;SDS011;35817;44.498;0.166;2022-12-24T16:48:05;10.55;;;4.05;;
49320;SDS011;35817;44.498;0.166;2022-12-24T16:50:32;4.85;;;3.97;;
49320;SDS011;35817;44.498;0.166;2022-12-24T16:52:58;9.48;;;3.25;;
49320;SDS011;35817;44.498;0.166;2022-12-24T16:55:24;5.63;;;2.83;;
49320;SDS011;35817;44.498;0.166;2022-12-24T16:57:50;5.10;;;3.33;;
49320;SDS011;35817;44.498;0.166;2022-12-24T17:00:16;7.32;;;3.08;;
49320;SDS011;35817;44.498;0.166;2022-12-24T17:02:47;5.43;;;2.65;;
49320;SDS011;35817;44.498;0.166;2022-12-24T17:05:13;3.58;;;2.53;;
49320;SDS011;35817;44.498;0.166;2022-12-24T17:07:39;6.32;;;2.30;;
49320;SDS011;35817;44.498;0.166;2022-12-24T17:10:09;14.38;;;3.63;;
49320;SDS011;35817;44.498;0.166;2022-12-24T17:12:36;7.80;;;3.47;;
49320;SDS011;35817;44.498;0.166;2022-12-24T17:15:02;5.78;;;4.50;;
49320;SDS011;35817;44.498;0.166;2022-12-24T17:17:28;11.27;;;4.13;;
49320;SDS011;35817;44.498;0.166;2022-12-24T17:19:54;10.00;;;5.60;;
49320;SDS011;35817;44.498;0.166;2022-12-24T17:22:21;13.70;;;8.10;;
49320;SDS011;35817;44.498;0.166;2022-12-24T17:24:47;26.70;;;16.77;;
49320;SDS011;35817;44.498;0.166;2022-12-24T17:27:13;32.67;;;19.20;;
49320;SDS011;35817;44.498;0.166;2022-12-24T17:29:40;28.42;;;16.80;;
49320;SDS011;35817;44.498;0.166;2022-12-24T17:32:06;20.35;;;13.50;;
49320;SDS011;35817;44.498;0.166;2022-12-24T17:34:32;19.23;;;10.80;;
49320;SDS011;35817;44.498;0.166;2022-12-24T17:36:57;18.40;;;9.00;;
49320;SDS011;35817;44.498;0.166;2022-12-24T17:39:23;11.15;;;8.25;;
49320;SDS011;35817;44.498;0.166;2022-12-24T17:41:49;14.13;;;7.60;;
49320;SDS011;35817;44.498;0.166;2022-12-24T17:44:15;11.68;;;7.35;;
49320;SDS011;35817;44.498;0.166;2022-12-24T17:46:41;8.25;;;7.07;;
49320;SDS011;35817;44.498;0.166;2022-12-24T17:49:07;18.10;;;7.95;;
49320;SDS011;35817;44.498;0.166;2022-12-24T17:51:33;12.45;;;8.00;;
49320;SDS011;35817;44.498;0.166;2022-12-24T17:53:59;12.65;;;8.85;;
49320;SDS011;35817;44.498;0.166;2022-12-24T17:56:26;12.07;;;7.68;;
49320;SDS011;35817;44.498;0.166;2022-12-24T17:58:52;12.57;;;9.00;;
49320;SDS011;35817;44.498;0.166;2022-12-24T18:01:22;11.88;;;10.38;;
49320;SDS011;35817;44.498;0.166;2022-12-24T18:03:50;16.88;;;9.75;;
49320;SDS011;35817;44.498;0.166;2022-12-24T18:06:17;17.20;;;9.90;;
49320;SDS011;35817;44.498;0.166;2022-12-24T18:08:44;15.60;;;11.07;;
49320;SDS011;35817;44.498;0.166;2022-12-24T18:13:44;25.48;;;18.70;;
49320;SDS011;35817;44.498;0.166;2022-12-24T18:16:21;25.52;;;16.67;;
49320;SDS011;35817;44.498;0.166;2022-12-24T18:18:48;23.55;;;17.65;;
49320;SDS011;35817;44.498;0.166;2022-12-24T18:21:15;30.63;;;18.70;;
49320;SDS011;35817;44.498;0.166;2022-12-24T18:23:43;24.80;;;16.00;;
49320;SDS011;35817;44.498;0.166;2022-12-24T18:26:10;20.50;;;14.30;;